This is the latest recevied weather packets stored in our database for station/object DL7KST-13. If no packets are shown the sender has not sent any weather packets the latest 10 day(s).
| Time | Temp. | Humidity | Pressure | Rain* | Wind** | Luminosity | Snow |
|---|---|---|---|---|---|---|---|
| 1777713884 | 24.44° C | 32% | 1012.9 hPa | 0 mm | 0.45 m/s, 210° | - | - |
| 1777712681 | 23.33° C | 32% | 1013 hPa | 0 mm | 0 m/s | - | - |
| 1777711473 | 22.22° C | 36% | 1013.1 hPa | 0 mm | 0 m/s | - | - |
| 1777710268 | 21.67° C | 35% | 1013.3 hPa | 0 mm | 0.45 m/s, 83° | - | - |
| 1777709063 | 22.22° C | 35% | 1013.4 hPa | 0 mm | 0 m/s | - | - |
| 1777707859 | 19.44° C | 41% | 1013.3 hPa | 0 mm | 0 m/s | - | - |
| 1777706652 | 20° C | 43% | 1013.6 hPa | 0 mm | 0 m/s | - | - |
| 1777705449 | 17.78° C | 48% | 1013.8 hPa | 0 mm | 0.45 m/s, 84° | - | - |
| 1777704243 | 16.67° C | 54% | 1013.7 hPa | 0 mm | 0.45 m/s, 180° | - | - |
| 1777703038 | 17.22° C | 51% | 1013.7 hPa | 0 mm | 0.45 m/s, 198° | - | - |
| 1777701834 | 15.56° C | 57% | 1014 hPa | 0 mm | 0.45 m/s, 48° | - | - |
| 1777700660 | 13.33° C | 70% | 1014 hPa | 0 mm | 0 m/s | - | - |
| 1777700628 | 13.33° C | 70% | 1014 hPa | 0 mm | 0 m/s | - | - |
| 1777699423 | 8.33° C | 84% | 1014.2 hPa | 0 mm | 0.45 m/s, 38° | - | - |
| 1777698219 | 6.67° C | 88% | 1014 hPa | 0 mm | 0.45 m/s, 64° | - | - |
| 1777697014 | 5° C | 90% | 1014.2 hPa | 0 mm | 0.45 m/s, 97° | - | - |
| 1777695809 | 4.44° C | 90% | 1014.1 hPa | 0 mm | 0.45 m/s, 54° | - | - |
| 1777694603 | 4.44° C | 91% | 1014.2 hPa | 0 mm | 0.45 m/s, 50° | - | - |
| 1777693398 | 3.89° C | 91% | 1014.1 hPa | 0 mm | 0.45 m/s, 92° | - | - |
| 1777692193 | 3.89° C | 90% | 1014.2 hPa | 0 mm | 0.89 m/s, 56° | - | - |
| 1777690988 | 4.44° C | 88% | 1014.3 hPa | 0 mm | 0.45 m/s, 100° | - | - |
| 1777689782 | 4.44° C | 88% | 1014.2 hPa | 0 mm | 0.45 m/s, 68° | - | - |
| 1777688579 | 4.44° C | 89% | 1014.5 hPa | 0 mm | 0.45 m/s, 79° | - | - |
| 1777687373 | 4.44° C | 88% | 1014.5 hPa | 0 mm | 0.45 m/s, 97° | - | - |
| 1777686168 | 5° C | 87% | 1014.7 hPa | 0 mm | 0.45 m/s, 57° | - | - |
* Rain latest hour (hover to see other rain measurements)
** Current wind speed in m/s (hover to see current wind gust speed)